sensor_id;sensor_type;location;lat;lon;timestamp;P1;durP1;ratioP1;P2;durP2;ratioP2
51618;SDS011;38518;53.164;5.430;2023-05-07T00:01:37;29.33;;;25.85;;
51618;SDS011;38518;53.164;5.430;2023-05-07T00:04:03;29.50;;;25.98;;
51618;SDS011;38518;53.164;5.430;2023-05-07T00:06:29;28.27;;;25.38;;
51618;SDS011;38518;53.164;5.430;2023-05-07T00:08:58;29.48;;;26.30;;
51618;SDS011;38518;53.164;5.430;2023-05-07T00:11:26;29.10;;;26.08;;
51618;SDS011;38518;53.164;5.430;2023-05-07T00:13:52;29.17;;;26.10;;
51618;SDS011;38518;53.164;5.430;2023-05-07T00:16:18;26.73;;;23.98;;
51618;SDS011;38518;53.164;5.430;2023-05-07T00:18:44;30.02;;;26.83;;
51618;SDS011;38518;53.164;5.430;2023-05-07T00:21:10;31.55;;;28.10;;
51618;SDS011;38518;53.164;5.430;2023-05-07T00:23:36;30.50;;;26.30;;
51618;SDS011;38518;53.164;5.430;2023-05-07T00:26:02;30.05;;;26.90;;
51618;SDS011;38518;53.164;5.430;2023-05-07T00:28:29;26.27;;;23.65;;
51618;SDS011;38518;53.164;5.430;2023-05-07T00:30:54;28.67;;;25.75;;
51618;SDS011;38518;53.164;5.430;2023-05-07T00:33:21;28.60;;;25.60;;
51618;SDS011;38518;53.164;5.430;2023-05-07T00:35:47;29.75;;;26.63;;
51618;SDS011;38518;53.164;5.430;2023-05-07T00:38:13;29.05;;;26.20;;
51618;SDS011;38518;53.164;5.430;2023-05-07T00:40:39;31.92;;;27.10;;
51618;SDS011;38518;53.164;5.430;2023-05-07T00:43:05;29.17;;;26.05;;
51618;SDS011;38518;53.164;5.430;2023-05-07T00:45:32;27.35;;;24.55;;
51618;SDS011;38518;53.164;5.430;2023-05-07T00:47:59;26.83;;;24.05;;
51618;SDS011;38518;53.164;5.430;2023-05-07T00:50:26;29.48;;;26.23;;
51618;SDS011;38518;53.164;5.430;2023-05-07T00:52:53;29.25;;;25.83;;
51618;SDS011;38518;53.164;5.430;2023-05-07T00:55:20;31.85;;;27.25;;
51618;SDS011;38518;53.164;5.430;2023-05-07T00:57:46;29.70;;;26.48;;
51618;SDS011;38518;53.164;5.430;2023-05-07T01:00:12;28.77;;;25.02;;
51618;SDS011;38518;53.164;5.430;2023-05-07T01:02:38;30.05;;;27.00;;
51618;SDS011;38518;53.164;5.430;2023-05-07T01:05:05;29.70;;;26.70;;
51618;SDS011;38518;53.164;5.430;2023-05-07T01:07:33;32.17;;;27.13;;
51618;SDS011;38518;53.164;5.430;2023-05-07T01:09:59;27.90;;;24.98;;
51618;SDS011;38518;53.164;5.430;2023-05-07T01:12:28;29.65;;;26.50;;
51618;SDS011;38518;53.164;5.430;2023-05-07T01:14:55;36.03;;;29.50;;
51618;SDS011;38518;53.164;5.430;2023-05-07T01:17:21;29.50;;;26.05;;
51618;SDS011;38518;53.164;5.430;2023-05-07T01:19:47;27.13;;;24.42;;
51618;SDS011;38518;53.164;5.430;2023-05-07T01:22:13;28.25;;;25.30;;
51618;SDS011;38518;53.164;5.430;2023-05-07T01:24:41;30.10;;;26.92;;
51618;SDS011;38518;53.164;5.430;2023-05-07T01:27:08;29.50;;;26.02;;
51618;SDS011;38518;53.164;5.430;2023-05-07T01:29:33;28.60;;;25.55;;
51618;SDS011;38518;53.164;5.430;2023-05-07T01:32:00;26.83;;;24.08;;
51618;SDS011;38518;53.164;5.430;2023-05-07T01:34:27;30.33;;;27.13;;
51618;SDS011;38518;53.164;5.430;2023-05-07T01:36:56;32.42;;;27.75;;
51618;SDS011;38518;53.164;5.430;2023-05-07T01:39:26;38.90;;;30.23;;
51618;SDS011;38518;53.164;5.430;2023-05-07T01:41:56;33.67;;;28.90;;
51618;SDS011;38518;53.164;5.430;2023-05-07T01:44:24;29.10;;;25.67;;
51618;SDS011;38518;53.164;5.430;2023-05-07T01:46:51;33.33;;;28.50;;
51618;SDS011;38518;53.164;5.430;2023-05-07T01:49:18;35.03;;;27.80;;
51618;SDS011;38518;53.164;5.430;2023-05-07T01:51:44;31.40;;;26.90;;
51618;SDS011;38518;53.164;5.430;2023-05-07T01:54:10;28.85;;;25.65;;
51618;SDS011;38518;53.164;5.430;2023-05-07T01:56:36;31.08;;;26.83;;
51618;SDS011;38518;53.164;5.430;2023-05-07T01:59:01;31.65;;;25.58;;
51618;SDS011;38518;53.164;5.430;2023-05-07T02:01:27;38.22;;;29.80;;
51618;SDS011;38518;53.164;5.430;2023-05-07T02:03:53;31.38;;;25.77;;
51618;SDS011;38518;53.164;5.430;2023-05-07T02:06:19;28.65;;;25.58;;
51618;SDS011;38518;53.164;5.430;2023-05-07T02:08:46;29.63;;;26.40;;
51618;SDS011;38518;53.164;5.430;2023-05-07T02:11:12;39.50;;;28.63;;
51618;SDS011;38518;53.164;5.430;2023-05-07T02:13:38;29.42;;;26.23;;
51618;SDS011;38518;53.164;5.430;2023-05-07T02:16:04;29.23;;;25.20;;
51618;SDS011;38518;53.164;5.430;2023-05-07T02:18:30;28.85;;;25.77;;
51618;SDS011;38518;53.164;5.430;2023-05-07T02:20:56;36.03;;;27.70;;
51618;SDS011;38518;53.164;5.430;2023-05-07T02:23:22;29.70;;;24.85;;
51618;SDS011;38518;53.164;5.430;2023-05-07T02:25:48;27.55;;;24.55;;
51618;SDS011;38518;53.164;5.430;2023-05-07T02:28:14;29.45;;;24.45;;
51618;SDS011;38518;53.164;5.430;2023-05-07T02:30:40;26.48;;;23.58;;
51618;SDS011;38518;53.164;5.430;2023-05-07T02:33:06;27.17;;;24.38;;
51618;SDS011;38518;53.164;5.430;2023-05-07T02:35:33;32.38;;;25.17;;
51618;SDS011;38518;53.164;5.430;2023-05-07T02:37:59;28.83;;;25.20;;
51618;SDS011;38518;53.164;5.430;2023-05-07T02:40:24;27.75;;;24.35;;
51618;SDS011;38518;53.164;5.430;2023-05-07T02:42:50;31.45;;;26.55;;
51618;SDS011;38518;53.164;5.430;2023-05-07T02:45:16;39.60;;;27.77;;
51618;SDS011;38518;53.164;5.430;2023-05-07T02:47:41;28.80;;;23.92;;
51618;SDS011;38518;53.164;5.430;2023-05-07T02:50:07;26.85;;;24.00;;
51618;SDS011;38518;53.164;5.430;2023-05-07T02:52:33;27.40;;;24.50;;
51618;SDS011;38518;53.164;5.430;2023-05-07T02:54:58;28.17;;;24.48;;
51618;SDS011;38518;53.164;5.430;2023-05-07T02:57:24;25.92;;;23.25;;
51618;SDS011;38518;53.164;5.430;2023-05-07T02:59:50;27.27;;;23.90;;
51618;SDS011;38518;53.164;5.430;2023-05-07T03:02:15;29.02;;;25.05;;
51618;SDS011;38518;53.164;5.430;2023-05-07T03:04:41;26.33;;;23.38;;
51618;SDS011;38518;53.164;5.430;2023-05-07T03:07:07;28.88;;;25.75;;
51618;SDS011;38518;53.164;5.430;2023-05-07T03:09:33;28.65;;;25.70;;
51618;SDS011;38518;53.164;5.430;2023-05-07T03:11:58;32.42;;;27.77;;
51618;SDS011;38518;53.164;5.430;2023-05-07T03:14:24;29.13;;;25.92;;
51618;SDS011;38518;53.164;5.430;2023-05-07T03:16:50;29.35;;;26.20;;
51618;SDS011;38518;53.164;5.430;2023-05-07T03:19:15;30.60;;;27.42;;
51618;SDS011;38518;53.164;5.430;2023-05-07T03:21:41;30.52;;;27.23;;
51618;SDS011;38518;53.164;5.430;2023-05-07T03:24:07;29.77;;;26.67;;
51618;SDS011;38518;53.164;5.430;2023-05-07T03:26:33;32.38;;;27.35;;
51618;SDS011;38518;53.164;5.430;2023-05-07T03:28:58;30.48;;;27.33;;
51618;SDS011;38518;53.164;5.430;2023-05-07T03:31:24;31.55;;;28.30;;
51618;SDS011;38518;53.164;5.430;2023-05-07T03:33:53;32.15;;;28.80;;
51618;SDS011;38518;53.164;5.430;2023-05-07T03:36:21;40.00;;;32.47;;
51618;SDS011;38518;53.164;5.430;2023-05-07T03:38:47;34.65;;;30.90;;
51618;SDS011;38518;53.164;5.430;2023-05-07T03:41:14;33.55;;;30.13;;
51618;SDS011;38518;53.164;5.430;2023-05-07T03:43:39;33.45;;;29.92;;
51618;SDS011;38518;53.164;5.430;2023-05-07T03:46:05;35.92;;;31.90;;
51618;SDS011;38518;53.164;5.430;2023-05-07T03:48:31;34.75;;;31.05;;
51618;SDS011;38518;53.164;5.430;2023-05-07T03:50:57;37.30;;;33.30;;
51618;SDS011;38518;53.164;5.430;2023-05-07T03:53:23;37.33;;;33.33;;
51618;SDS011;38518;53.164;5.430;2023-05-07T03:55:49;34.88;;;31.10;;
51618;SDS011;38518;53.164;5.430;2023-05-07T03:58:15;38.63;;;32.88;;
51618;SDS011;38518;53.164;5.430;2023-05-07T04:00:41;39.28;;;32.00;;
51618;SDS011;38518;53.164;5.430;2023-05-07T04:03:07;34.58;;;31.02;;
51618;SDS011;38518;53.164;5.430;2023-05-07T04:05:33;38.10;;;34.15;;
51618;SDS011;38518;53.164;5.430;2023-05-07T04:07:59;40.17;;;35.92;;
51618;SDS011;38518;53.164;5.430;2023-05-07T04:10:25;38.92;;;34.90;;
51618;SDS011;38518;53.164;5.430;2023-05-07T04:12:51;35.80;;;31.85;;
51618;SDS011;38518;53.164;5.430;2023-05-07T04:15:16;38.30;;;34.08;;
51618;SDS011;38518;53.164;5.430;2023-05-07T04:17:42;36.72;;;32.92;;
51618;SDS011;38518;53.164;5.430;2023-05-07T04:20:14;38.55;;;34.45;;
51618;SDS011;38518;53.164;5.430;2023-05-07T04:22:41;40.05;;;35.70;;
51618;SDS011;38518;53.164;5.430;2023-05-07T04:25:07;39.20;;;35.00;;
51618;SDS011;38518;53.164;5.430;2023-05-07T04:27:37;39.75;;;34.50;;
51618;SDS011;38518;53.164;5.430;2023-05-07T04:30:02;37.05;;;33.15;;
51618;SDS011;38518;53.164;5.430;2023-05-07T04:32:29;38.67;;;34.05;;
51618;SDS011;38518;53.164;5.430;2023-05-07T04:34:55;38.95;;;34.83;;
51618;SDS011;38518;53.164;5.430;2023-05-07T04:37:21;38.45;;;34.38;;
51618;SDS011;38518;53.164;5.430;2023-05-07T04:39:47;37.22;;;32.05;;
51618;SDS011;38518;53.164;5.430;2023-05-07T04:42:16;39.33;;;35.13;;
51618;SDS011;38518;53.164;5.430;2023-05-07T04:44:43;41.22;;;35.55;;
51618;SDS011;38518;53.164;5.430;2023-05-07T04:47:10;39.85;;;35.55;;
51618;SDS011;38518;53.164;5.430;2023-05-07T04:49:36;42.75;;;36.72;;
51618;SDS011;38518;53.164;5.430;2023-05-07T04:52:03;38.25;;;34.05;;
51618;SDS011;38518;53.164;5.430;2023-05-07T04:54:29;39.47;;;35.28;;
51618;SDS011;38518;53.164;5.430;2023-05-07T04:56:55;38.58;;;34.30;;
51618;SDS011;38518;53.164;5.430;2023-05-07T04:59:20;39.53;;;34.92;;
51618;SDS011;38518;53.164;5.430;2023-05-07T05:01:46;39.20;;;34.72;;
51618;SDS011;38518;53.164;5.430;2023-05-07T05:04:12;36.67;;;32.78;;
51618;SDS011;38518;53.164;5.430;2023-05-07T05:06:38;37.45;;;33.40;;
51618;SDS011;38518;53.164;5.430;2023-05-07T05:09:04;39.92;;;35.33;;
51618;SDS011;38518;53.164;5.430;2023-05-07T05:11:30;39.92;;;35.63;;
51618;SDS011;38518;53.164;5.430;2023-05-07T05:13:56;44.15;;;37.58;;
51618;SDS011;38518;53.164;5.430;2023-05-07T05:16:22;35.97;;;27.42;;
51618;SDS011;38518;53.164;5.430;2023-05-07T05:18:48;42.63;;;36.58;;
51618;SDS011;38518;53.164;5.430;2023-05-07T05:21:13;43.47;;;37.05;;
51618;SDS011;38518;53.164;5.430;2023-05-07T05:23:42;40.50;;;36.08;;
51618;SDS011;38518;53.164;5.430;2023-05-07T05:26:07;40.20;;;35.78;;
51618;SDS011;38518;53.164;5.430;2023-05-07T05:28:33;41.72;;;37.22;;
51618;SDS011;38518;53.164;5.430;2023-05-07T05:30:59;41.53;;;37.00;;
51618;SDS011;38518;53.164;5.430;2023-05-07T05:33:25;40.65;;;36.08;;
51618;SDS011;38518;53.164;5.430;2023-05-07T05:35:50;41.15;;;36.65;;
51618;SDS011;38518;53.164;5.430;2023-05-07T05:38:16;40.97;;;35.63;;
51618;SDS011;38518;53.164;5.430;2023-05-07T05:40:42;42.40;;;37.83;;
51618;SDS011;38518;53.164;5.430;2023-05-07T05:43:07;41.85;;;36.70;;
51618;SDS011;38518;53.164;5.430;2023-05-07T05:45:33;42.35;;;37.75;;
51618;SDS011;38518;53.164;5.430;2023-05-07T05:47:59;42.00;;;37.35;;
51618;SDS011;38518;53.164;5.430;2023-05-07T05:50:25;40.83;;;34.55;;
51618;SDS011;38518;53.164;5.430;2023-05-07T05:52:50;41.05;;;36.42;;
51618;SDS011;38518;53.164;5.430;2023-05-07T05:55:16;43.03;;;38.22;;
51618;SDS011;38518;53.164;5.430;2023-05-07T05:57:42;43.17;;;38.58;;
51618;SDS011;38518;53.164;5.430;2023-05-07T06:00:08;45.97;;;39.30;;
51618;SDS011;38518;53.164;5.430;2023-05-07T06:02:34;43.20;;;38.50;;
51618;SDS011;38518;53.164;5.430;2023-05-07T06:05:00;42.67;;;38.08;;
51618;SDS011;38518;53.164;5.430;2023-05-07T06:07:26;41.10;;;36.00;;
51618;SDS011;38518;53.164;5.430;2023-05-07T06:09:51;46.58;;;39.08;;
51618;SDS011;38518;53.164;5.430;2023-05-07T06:12:17;43.08;;;37.60;;
51618;SDS011;38518;53.164;5.430;2023-05-07T06:14:43;46.45;;;39.00;;
51618;SDS011;38518;53.164;5.430;2023-05-07T06:17:09;49.28;;;41.75;;
51618;SDS011;38518;53.164;5.430;2023-05-07T06:19:34;44.38;;;39.58;;
51618;SDS011;38518;53.164;5.430;2023-05-07T06:22:00;43.42;;;37.97;;
51618;SDS011;38518;53.164;5.430;2023-05-07T06:24:27;45.28;;;38.70;;
51618;SDS011;38518;53.164;5.430;2023-05-07T06:26:53;48.10;;;40.75;;
51618;SDS011;38518;53.164;5.430;2023-05-07T06:29:19;44.47;;;36.78;;
51618;SDS011;38518;53.164;5.430;2023-05-07T06:31:45;44.97;;;39.88;;
51618;SDS011;38518;53.164;5.430;2023-05-07T06:34:11;48.22;;;40.10;;
51618;SDS011;38518;53.164;5.430;2023-05-07T06:36:39;44.17;;;39.25;;
51618;SDS011;38518;53.164;5.430;2023-05-07T06:39:06;43.72;;;38.92;;
51618;SDS011;38518;53.164;5.430;2023-05-07T06:41:31;41.75;;;37.15;;
51618;SDS011;38518;53.164;5.430;2023-05-07T06:43:57;44.65;;;38.83;;
51618;SDS011;38518;53.164;5.430;2023-05-07T06:46:23;42.45;;;37.78;;
51618;SDS011;38518;53.164;5.430;2023-05-07T06:48:49;44.03;;;38.28;;
51618;SDS011;38518;53.164;5.430;2023-05-07T06:51:14;44.65;;;38.78;;
51618;SDS011;38518;53.164;5.430;2023-05-07T06:53:40;42.95;;;38.38;;
51618;SDS011;38518;53.164;5.430;2023-05-07T06:56:06;41.53;;;37.10;;
51618;SDS011;38518;53.164;5.430;2023-05-07T06:58:32;42.97;;;38.47;;
51618;SDS011;38518;53.164;5.430;2023-05-07T07:00:57;44.13;;;39.33;;
51618;SDS011;38518;53.164;5.430;2023-05-07T07:03:23;45.60;;;38.50;;
51618;SDS011;38518;53.164;5.430;2023-05-07T07:05:52;40.90;;;36.50;;
51618;SDS011;38518;53.164;5.430;2023-05-07T07:08:19;44.85;;;37.35;;
51618;SDS011;38518;53.164;5.430;2023-05-07T07:10:46;43.58;;;38.05;;
51618;SDS011;38518;53.164;5.430;2023-05-07T07:13:12;42.13;;;37.42;;
51618;SDS011;38518;53.164;5.430;2023-05-07T07:15:38;42.28;;;37.67;;
51618;SDS011;38518;53.164;5.430;2023-05-07T07:18:04;40.03;;;35.78;;
51618;SDS011;38518;53.164;5.430;2023-05-07T07:20:29;43.15;;;35.60;;
51618;SDS011;38518;53.164;5.430;2023-05-07T07:22:55;40.22;;;35.58;;
51618;SDS011;38518;53.164;5.430;2023-05-07T07:25:21;39.58;;;35.38;;
51618;SDS011;38518;53.164;5.430;2023-05-07T07:27:47;37.05;;;33.05;;
51618;SDS011;38518;53.164;5.430;2023-05-07T07:30:16;38.95;;;34.70;;
51618;SDS011;38518;53.164;5.430;2023-05-07T07:32:41;38.53;;;34.42;;
51618;SDS011;38518;53.164;5.430;2023-05-07T07:35:07;39.03;;;34.88;;
51618;SDS011;38518;53.164;5.430;2023-05-07T07:37:34;38.83;;;34.72;;
51618;SDS011;38518;53.164;5.430;2023-05-07T07:40:00;39.15;;;35.15;;
51618;SDS011;38518;53.164;5.430;2023-05-07T07:42:25;38.75;;;34.78;;
51618;SDS011;38518;53.164;5.430;2023-05-07T07:44:51;40.65;;;36.38;;
51618;SDS011;38518;53.164;5.430;2023-05-07T07:47:17;40.33;;;35.92;;
51618;SDS011;38518;53.164;5.430;2023-05-07T07:49:43;40.25;;;35.85;;
51618;SDS011;38518;53.164;5.430;2023-05-07T07:52:09;38.03;;;33.92;;
51618;SDS011;38518;53.164;5.430;2023-05-07T07:54:35;40.60;;;35.40;;
51618;SDS011;38518;53.164;5.430;2023-05-07T07:57:01;39.10;;;35.00;;
51618;SDS011;38518;53.164;5.430;2023-05-07T07:59:26;36.92;;;33.00;;
51618;SDS011;38518;53.164;5.430;2023-05-07T08:01:52;38.60;;;34.13;;
51618;SDS011;38518;53.164;5.430;2023-05-07T08:04:20;36.45;;;32.60;;
51618;SDS011;38518;53.164;5.430;2023-05-07T08:06:46;36.10;;;31.77;;
51618;SDS011;38518;53.164;5.430;2023-05-07T08:09:13;32.67;;;29.27;;
51618;SDS011;38518;53.164;5.430;2023-05-07T08:11:39;34.58;;;30.95;;
51618;SDS011;38518;53.164;5.430;2023-05-07T08:14:05;33.55;;;30.13;;
51618;SDS011;38518;53.164;5.430;2023-05-07T08:16:31;33.42;;;29.83;;
51618;SDS011;38518;53.164;5.430;2023-05-07T08:18:57;32.05;;;28.88;;
51618;SDS011;38518;53.164;5.430;2023-05-07T08:21:22;32.63;;;29.35;;
51618;SDS011;38518;53.164;5.430;2023-05-07T08:23:48;30.77;;;27.58;;
51618;SDS011;38518;53.164;5.430;2023-05-07T08:26:14;29.73;;;26.80;;
51618;SDS011;38518;53.164;5.430;2023-05-07T08:28:40;28.88;;;25.10;;
51618;SDS011;38518;53.164;5.430;2023-05-07T08:31:06;28.50;;;25.42;;
51618;SDS011;38518;53.164;5.430;2023-05-07T08:33:39;27.35;;;24.65;;
51618;SDS011;38518;53.164;5.430;2023-05-07T08:39:27;26.38;;;23.75;;
51618;SDS011;38518;53.164;5.430;2023-05-07T08:41:54;27.83;;;25.10;;
51618;SDS011;38518;53.164;5.430;2023-05-07T08:45:01;25.25;;;22.83;;
51618;SDS011;38518;53.164;5.430;2023-05-07T08:47:34;27.98;;;25.13;;
51618;SDS011;38518;53.164;5.430;2023-05-07T08:50:05;26.02;;;23.33;;
51618;SDS011;38518;53.164;5.430;2023-05-07T08:52:32;25.92;;;23.48;;
51618;SDS011;38518;53.164;5.430;2023-05-07T08:54:58;25.38;;;22.98;;
51618;SDS011;38518;53.164;5.430;2023-05-07T08:57:48;26.25;;;23.70;;
51618;SDS011;38518;53.164;5.430;2023-05-07T09:00:18;25.23;;;22.85;;
51618;SDS011;38518;53.164;5.430;2023-05-07T09:02:46;25.60;;;22.90;;
51618;SDS011;38518;53.164;5.430;2023-05-07T09:05:17;26.10;;;23.48;;
51618;SDS011;38518;53.164;5.430;2023-05-07T09:07:45;24.38;;;22.05;;
51618;SDS011;38518;53.164;5.430;2023-05-07T09:10:14;22.85;;;20.75;;
51618;SDS011;38518;53.164;5.430;2023-05-07T09:13:03;24.17;;;21.88;;
51618;SDS011;38518;53.164;5.430;2023-05-07T09:15:29;25.17;;;22.55;;
51618;SDS011;38518;53.164;5.430;2023-05-07T09:17:58;24.55;;;22.20;;
51618;SDS011;38518;53.164;5.430;2023-05-07T09:20:32;24.00;;;21.73;;
51618;SDS011;38518;53.164;5.430;2023-05-07T09:22:58;23.55;;;21.23;;
51618;SDS011;38518;53.164;5.430;2023-05-07T09:25:27;22.42;;;20.23;;
51618;SDS011;38518;53.164;5.430;2023-05-07T09:27:54;23.63;;;21.27;;
51618;SDS011;38518;53.164;5.430;2023-05-07T09:30:20;24.23;;;21.70;;
51618;SDS011;38518;53.164;5.430;2023-05-07T09:35:53;21.83;;;19.73;;
51618;SDS011;38518;53.164;5.430;2023-05-07T09:38:22;22.25;;;20.08;;
51618;SDS011;38518;53.164;5.430;2023-05-07T09:41:06;22.60;;;20.37;;
51618;SDS011;38518;53.164;5.430;2023-05-07T09:50:09;22.08;;;19.98;;
51618;SDS011;38518;53.164;5.430;2023-05-07T09:52:38;22.27;;;19.65;;
51618;SDS011;38518;53.164;5.430;2023-05-07T09:55:06;23.83;;;21.48;;
51618;SDS011;38518;53.164;5.430;2023-05-07T09:57:33;22.67;;;20.48;;
51618;SDS011;38518;53.164;5.430;2023-05-07T10:19:08;20.45;;;18.45;;
51618;SDS011;38518;53.164;5.430;2023-05-07T10:21:38;21.13;;;19.23;;
51618;SDS011;38518;53.164;5.430;2023-05-07T10:24:09;21.75;;;19.65;;
51618;SDS011;38518;53.164;5.430;2023-05-07T10:26:40;21.02;;;18.83;;
51618;SDS011;38518;53.164;5.430;2023-05-07T10:29:13;21.80;;;19.70;;
51618;SDS011;38518;53.164;5.430;2023-05-07T10:34:36;21.75;;;19.75;;
51618;SDS011;38518;53.164;5.430;2023-05-07T10:37:05;21.63;;;19.52;;
51618;SDS011;38518;53.164;5.430;2023-05-07T10:39:32;21.40;;;19.40;;
51618;SDS011;38518;53.164;5.430;2023-05-07T10:42:07;21.55;;;19.45;;
51618;SDS011;38518;53.164;5.430;2023-05-07T10:44:34;22.52;;;20.33;;
51618;SDS011;38518;53.164;5.430;2023-05-07T10:47:13;21.35;;;19.30;;
51618;SDS011;38518;53.164;5.430;2023-05-07T10:54:45;22.80;;;20.70;;
51618;SDS011;38518;53.164;5.430;2023-05-07T10:59:56;20.98;;;19.08;;
51618;SDS011;38518;53.164;5.430;2023-05-07T11:02:21;20.45;;;18.55;;
51618;SDS011;38518;53.164;5.430;2023-05-07T11:07:53;21.92;;;19.75;;
51618;SDS011;38518;53.164;5.430;2023-05-07T11:10:20;23.92;;;21.55;;
51618;SDS011;38518;53.164;5.430;2023-05-07T11:12:47;23.73;;;21.55;;
51618;SDS011;38518;53.164;5.430;2023-05-07T11:15:13;23.40;;;21.20;;
51618;SDS011;38518;53.164;5.430;2023-05-07T11:17:52;22.90;;;20.83;;
51618;SDS011;38518;53.164;5.430;2023-05-07T11:20:18;21.67;;;19.67;;
51618;SDS011;38518;53.164;5.430;2023-05-07T11:22:44;21.45;;;19.38;;
51618;SDS011;38518;53.164;5.430;2023-05-07T11:25:10;22.23;;;19.90;;
51618;SDS011;38518;53.164;5.430;2023-05-07T11:27:42;22.08;;;19.92;;
51618;SDS011;38518;53.164;5.430;2023-05-07T11:30:08;20.67;;;18.67;;
51618;SDS011;38518;53.164;5.430;2023-05-07T11:32:35;20.98;;;18.98;;
51618;SDS011;38518;53.164;5.430;2023-05-07T11:35:00;19.65;;;17.88;;
51618;SDS011;38518;53.164;5.430;2023-05-07T11:37:27;22.10;;;20.00;;
51618;SDS011;38518;53.164;5.430;2023-05-07T11:40:04;20.60;;;18.50;;
51618;SDS011;38518;53.164;5.430;2023-05-07T11:42:38;21.70;;;19.00;;
51618;SDS011;38518;53.164;5.430;2023-05-07T11:45:07;20.00;;;18.02;;
51618;SDS011;38518;53.164;5.430;2023-05-07T11:47:33;20.65;;;18.73;;
51618;SDS011;38518;53.164;5.430;2023-05-07T11:50:06;19.55;;;17.63;;
51618;SDS011;38518;53.164;5.430;2023-05-07T11:52:36;21.25;;;19.33;;
51618;SDS011;38518;53.164;5.430;2023-05-07T11:55:12;20.48;;;18.58;;
51618;SDS011;38518;53.164;5.430;2023-05-07T11:57:43;20.20;;;18.30;;
51618;SDS011;38518;53.164;5.430;2023-05-07T12:00:10;20.42;;;18.52;;
51618;SDS011;38518;53.164;5.430;2023-05-07T12:02:37;21.48;;;19.38;;
51618;SDS011;38518;53.164;5.430;2023-05-07T12:05:02;20.80;;;18.85;;
51618;SDS011;38518;53.164;5.430;2023-05-07T12:07:29;20.83;;;18.85;;
51618;SDS011;38518;53.164;5.430;2023-05-07T12:09:54;21.50;;;19.15;;
51618;SDS011;38518;53.164;5.430;2023-05-07T12:12:20;21.10;;;19.00;;
51618;SDS011;38518;53.164;5.430;2023-05-07T12:14:46;20.92;;;18.92;;
51618;SDS011;38518;53.164;5.430;2023-05-07T12:17:13;21.33;;;19.30;;
51618;SDS011;38518;53.164;5.430;2023-05-07T12:19:40;23.77;;;21.48;;
51618;SDS011;38518;53.164;5.430;2023-05-07T12:22:08;20.70;;;18.70;;
51618;SDS011;38518;53.164;5.430;2023-05-07T12:24:47;20.67;;;18.65;;
51618;SDS011;38518;53.164;5.430;2023-05-07T12:27:14;20.67;;;18.77;;
51618;SDS011;38518;53.164;5.430;2023-05-07T12:29:47;20.63;;;18.65;;
51618;SDS011;38518;53.164;5.430;2023-05-07T12:32:14;20.83;;;18.83;;
51618;SDS011;38518;53.164;5.430;2023-05-07T12:34:45;21.80;;;19.52;;
51618;SDS011;38518;53.164;5.430;2023-05-07T12:37:12;19.75;;;17.95;;
51618;SDS011;38518;53.164;5.430;2023-05-07T12:39:43;19.35;;;17.58;;
51618;SDS011;38518;53.164;5.430;2023-05-07T12:42:14;19.75;;;17.85;;
51618;SDS011;38518;53.164;5.430;2023-05-07T12:44:41;19.13;;;17.23;;
51618;SDS011;38518;53.164;5.430;2023-05-07T12:47:10;19.92;;;18.02;;
51618;SDS011;38518;53.164;5.430;2023-05-07T12:49:41;19.35;;;17.55;;
51618;SDS011;38518;53.164;5.430;2023-05-07T12:52:13;19.00;;;17.08;;
51618;SDS011;38518;53.164;5.430;2023-05-07T12:54:39;17.67;;;16.08;;
51618;SDS011;38518;53.164;5.430;2023-05-07T12:57:09;17.85;;;16.15;;
51618;SDS011;38518;53.164;5.430;2023-05-07T13:02:06;18.17;;;16.33;;
51618;SDS011;38518;53.164;5.430;2023-05-07T13:04:33;20.80;;;18.80;;
51618;SDS011;38518;53.164;5.430;2023-05-07T13:06:59;18.90;;;17.05;;
51618;SDS011;38518;53.164;5.430;2023-05-07T13:09:25;17.67;;;16.08;;
51618;SDS011;38518;53.164;5.430;2023-05-07T13:11:54;18.85;;;16.92;;
51618;SDS011;38518;53.164;5.430;2023-05-07T13:14:20;18.25;;;16.45;;
51618;SDS011;38518;53.164;5.430;2023-05-07T13:16:46;17.00;;;15.38;;
51618;SDS011;38518;53.164;5.430;2023-05-07T13:19:20;17.05;;;15.32;;
51618;SDS011;38518;53.164;5.430;2023-05-07T13:21:46;16.65;;;15.05;;
51618;SDS011;38518;53.164;5.430;2023-05-07T13:24:19;18.13;;;16.23;;
51618;SDS011;38518;53.164;5.430;2023-05-07T13:26:45;18.52;;;15.05;;
51618;SDS011;38518;53.164;5.430;2023-05-07T13:29:11;15.95;;;14.32;;
51618;SDS011;38518;53.164;5.430;2023-05-07T13:31:37;17.25;;;15.70;;
51618;SDS011;38518;53.164;5.430;2023-05-07T13:34:07;16.30;;;14.65;;
51618;SDS011;38518;53.164;5.430;2023-05-07T13:36:33;16.52;;;14.95;;
51618;SDS011;38518;53.164;5.430;2023-05-07T13:39:02;17.10;;;15.40;;
51618;SDS011;38518;53.164;5.430;2023-05-07T13:41:28;16.38;;;14.98;;
51618;SDS011;38518;53.164;5.430;2023-05-07T13:43:55;17.02;;;15.52;;
51618;SDS011;38518;53.164;5.430;2023-05-07T13:46:24;17.58;;;15.73;;
51618;SDS011;38518;53.164;5.430;2023-05-07T13:48:50;17.40;;;15.70;;
51618;SDS011;38518;53.164;5.430;2023-05-07T13:51:16;17.15;;;15.63;;
51618;SDS011;38518;53.164;5.430;2023-05-07T13:53:42;18.90;;;17.13;;
51618;SDS011;38518;53.164;5.430;2023-05-07T13:56:07;18.90;;;17.10;;
51618;SDS011;38518;53.164;5.430;2023-05-07T13:58:33;19.77;;;17.77;;
51618;SDS011;38518;53.164;5.430;2023-05-07T14:01:00;19.58;;;17.75;;
51618;SDS011;38518;53.164;5.430;2023-05-07T14:03:25;18.45;;;16.70;;
51618;SDS011;38518;53.164;5.430;2023-05-07T14:05:51;18.90;;;16.90;;
51618;SDS011;38518;53.164;5.430;2023-05-07T14:08:17;19.95;;;17.85;;
51618;SDS011;38518;53.164;5.430;2023-05-07T14:10:45;18.50;;;16.55;;
51618;SDS011;38518;53.164;5.430;2023-05-07T14:13:11;19.42;;;17.55;;
51618;SDS011;38518;53.164;5.430;2023-05-07T14:15:37;19.10;;;17.20;;
51618;SDS011;38518;53.164;5.430;2023-05-07T14:18:02;18.20;;;16.52;;
51618;SDS011;38518;53.164;5.430;2023-05-07T14:20:28;20.02;;;18.13;;
51618;SDS011;38518;53.164;5.430;2023-05-07T14:22:56;18.23;;;16.48;;
51618;SDS011;38518;53.164;5.430;2023-05-07T14:25:21;18.23;;;16.58;;
51618;SDS011;38518;53.164;5.430;2023-05-07T14:27:50;19.83;;;18.02;;
51618;SDS011;38518;53.164;5.430;2023-05-07T14:30:16;19.75;;;17.73;;
51618;SDS011;38518;53.164;5.430;2023-05-07T14:32:42;19.55;;;17.63;;
51618;SDS011;38518;53.164;5.430;2023-05-07T14:35:08;19.20;;;17.33;;
51618;SDS011;38518;53.164;5.430;2023-05-07T14:37:33;19.13;;;17.15;;
51618;SDS011;38518;53.164;5.430;2023-05-07T14:39:59;20.00;;;17.90;;
51618;SDS011;38518;53.164;5.430;2023-05-07T14:42:25;20.85;;;18.63;;
51618;SDS011;38518;53.164;5.430;2023-05-07T14:44:51;20.38;;;18.38;;
51618;SDS011;38518;53.164;5.430;2023-05-07T14:47:42;19.98;;;18.08;;
51618;SDS011;38518;53.164;5.430;2023-05-07T14:50:07;21.25;;;19.20;;
51618;SDS011;38518;53.164;5.430;2023-05-07T14:52:34;20.27;;;18.15;;
51618;SDS011;38518;53.164;5.430;2023-05-07T14:54:59;19.65;;;17.55;;
51618;SDS011;38518;53.164;5.430;2023-05-07T14:57:25;19.95;;;18.10;;
51618;SDS011;38518;53.164;5.430;2023-05-07T14:59:51;19.85;;;17.85;;
51618;SDS011;38518;53.164;5.430;2023-05-07T15:02:17;19.00;;;17.30;;
51618;SDS011;38518;53.164;5.430;2023-05-07T15:04:43;19.25;;;17.33;;
51618;SDS011;38518;53.164;5.430;2023-05-07T15:07:14;18.85;;;16.35;;
51618;SDS011;38518;53.164;5.430;2023-05-07T15:09:44;18.60;;;16.83;;